Time;durP1;ratioP1;P1;durP2;ratioP2;P2;SDS_P1;SDS_P2;PMS_P1;PMS_P2;Temp;Humidity;BMP_temperature;BMP_pressure;BME280_temperature;BME280_humidity;BME280_pressure;Samples;Min_cycle;Max_cycle;Signal;HPM_P1;HPM_P2
2021/06/01 00:01:12;;;;;;;2.97;1.33;;;23.60;29.80;;;;;;5028512;28;20269;-45
2021/06/01 00:03:38;;;;;;;2.10;1.60;;;23.60;29.80;;;;;;5023757;28;20344;-46
2021/06/01 00:06:04;;;;;;;1.33;1.20;;;23.60;29.80;;;;;;5028196;28;20221;-45
2021/06/01 00:08:30;;;;;;;1.50;1.40;;;23.60;29.80;;;;;;5015856;28;20206;-49
2021/06/01 00:10:56;;;;;;;1.50;1.20;;;23.60;29.90;;;;;;5025413;28;20218;-47
2021/06/01 00:13:22;;;;;;;1.73;1.20;;;23.60;29.80;;;;;;5014871;28;20206;-45
2021/06/01 00:15:48;;;;;;;1.42;1.33;;;23.60;29.90;;;;;;5029895;28;20206;-45
2021/06/01 00:18:14;;;;;;;1.33;1.20;;;23.70;29.90;;;;;;5014159;28;20344;-48
2021/06/01 00:20:40;;;;;;;1.50;1.40;;;23.60;29.90;;;;;;5029788;28;20659;-49
2021/06/01 00:23:06;;;;;;;1.63;1.52;;;23.60;29.90;;;;;;5015660;28;20219;-46
2021/06/01 00:25:32;;;;;;;1.58;1.40;;;23.60;29.90;;;;;;5013861;28;20206;-54
2021/06/01 00:27:58;;;;;;;1.40;1.30;;;23.60;29.90;;;;;;5025121;28;20650;-45
2021/06/01 00:30:24;;;;;;;1.30;1.20;;;23.60;29.90;;;;;;5015426;28;20207;-53
2021/06/01 00:32:50;;;;;;;1.20;1.20;;;23.60;29.90;;;;;;5014335;28;20215;-47
2021/06/01 00:35:17;;;;;;;1.33;1.13;;;23.60;29.90;;;;;;5026874;28;20260;-48
2021/06/01 00:37:43;;;;;;;1.30;1.20;;;23.60;30.00;;;;;;5016780;28;20199;-47
2021/06/01 00:40:09;;;;;;;1.30;1.20;;;23.60;30.00;;;;;;5028769;28;20219;-47
2021/06/01 00:42:35;;;;;;;1.33;1.23;;;23.60;30.00;;;;;;5029023;28;20558;-45
2021/06/01 00:45:02;;;;;;;1.55;1.45;;;23.60;30.00;;;;;;5023035;28;20244;-47
2021/06/01 00:47:28;;;;;;;1.92;1.20;;;23.60;30.00;;;;;;5027279;28;20226;-48
2021/06/01 00:49:54;;;;;;;1.40;1.30;;;23.60;30.00;;;;;;5017797;28;20222;-48
2021/06/01 00:52:20;;;;;;;1.38;1.25;;;23.60;30.00;;;;;;5022779;28;20277;-44
2021/06/01 00:54:46;;;;;;;1.45;1.35;;;23.60;30.00;;;;;;5029848;28;20203;-44
2021/06/01 00:57:12;;;;;;;1.35;1.25;;;23.60;30.00;;;;;;5013897;28;20596;-47
2021/06/01 00:59:38;;;;;;;1.75;1.30;;;23.60;30.10;;;;;;5017552;28;20196;-47
2021/06/01 01:02:05;;;;;;;2.42;1.25;;;23.60;30.00;;;;;;5018085;28;20281;-46
2021/06/01 01:04:31;;;;;;;1.25;1.15;;;23.60;30.10;;;;;;5016603;28;20235;-47
2021/06/01 01:06:59;;;;;;;1.77;1.20;;;23.60;30.10;;;;;;5013460;28;20207;-44
2021/06/01 01:09:25;;;;;;;1.45;1.20;;;23.60;30.10;;;;;;5026961;28;20269;-45
2021/06/01 01:11:51;;;;;;;1.20;1.15;;;23.60;30.10;;;;;;5033368;28;20230;-48
2021/06/01 01:14:17;;;;;;;2.00;1.90;;;23.60;30.10;;;;;;5023137;28;20203;-47
2021/06/01 01:16:43;;;;;;;1.40;1.30;;;23.60;30.20;;;;;;5020131;28;20364;-45
2021/06/01 01:19:09;;;;;;;1.50;1.40;;;23.60;30.10;;;;;;5016922;28;20607;-45
2021/06/01 01:21:35;;;;;;;1.98;1.30;;;23.60;30.10;;;;;;5015652;28;20222;-46
2021/06/01 01:24:01;;;;;;;1.52;1.42;;;23.60;30.20;;;;;;5016848;28;20233;-47
2021/06/01 01:26:27;;;;;;;1.58;1.20;;;23.60;30.10;;;;;;5021828;28;20599;-45
2021/06/01 01:28:53;;;;;;;1.30;1.17;;;23.60;30.20;;;;;;5022692;28;20252;-46
2021/06/01 01:31:19;;;;;;;1.08;1.08;;;23.60;30.20;;;;;;5012594;28;20250;-45
2021/06/01 01:33:45;;;;;;;1.35;1.15;;;23.60;30.20;;;;;;5012951;28;20558;-57
2021/06/01 01:36:11;;;;;;;1.40;1.30;;;23.60;30.10;;;;;;5013604;28;20214;-55
2021/06/01 01:38:37;;;;;;;1.00;1.00;;;23.60;30.20;;;;;;5016938;28;20514;-50
2021/06/01 01:41:03;;;;;;;1.52;1.42;;;23.60;30.20;;;;;;5031317;28;20229;-54
2021/06/01 01:43:31;;;;;;;1.20;1.10;;;23.60;30.10;;;;;;5022034;28;20766;-44
2021/06/01 01:46:05;;;;;;;1.52;1.23;;;23.60;30.20;;;;;;5016294;28;20602;-54
2021/06/01 01:51:20;;;;;;;1.40;1.30;;;23.60;30.20;;;;;;5001988;28;20628;-57
2021/06/01 01:53:46;;;;;;;1.25;1.15;;;23.60;30.20;;;;;;5016500;28;20210;-48
2021/06/01 01:56:13;;;;;;;1.48;1.20;;;23.60;30.30;;;;;;5012554;28;20654;-52
2021/06/01 01:58:39;;;;;;;1.40;1.30;;;23.60;30.30;;;;;;5025926;28;20583;-47
2021/06/01 02:01:05;;;;;;;1.88;1.50;;;23.60;30.20;;;;;;5017814;28;20254;-45
2021/06/01 02:03:31;;;;;;;1.30;1.27;;;23.60;30.20;;;;;;5026756;28;20335;-47
2021/06/01 02:05:57;;;;;;;1.50;1.40;;;23.60;30.30;;;;;;5032262;28;20218;-56
2021/06/01 02:08:23;;;;;;;1.30;1.20;;;23.60;30.20;;;;;;5029735;28;20329;-50
2021/06/01 02:10:49;;;;;;;1.50;1.40;;;23.60;30.30;;;;;;5018708;28;20219;-51
2021/06/01 02:13:15;;;;;;;1.20;1.10;;;23.60;30.30;;;;;;5012508;28;20565;-46
2021/06/01 02:15:41;;;;;;;1.20;1.10;;;23.60;30.20;;;;;;5012633;28;20203;-47
2021/06/01 02:18:07;;;;;;;1.52;1.42;;;23.60;30.30;;;;;;5014568;28;20206;-54
2021/06/01 02:20:33;;;;;;;1.10;1.10;;;23.60;30.30;;;;;;5011816;28;20203;-55
2021/06/01 02:25:43;;;;;;;1.20;1.10;;;23.60;30.30;;;;;;5031037;28;20205;-52
2021/06/01 02:28:09;;;;;;;1.50;1.23;;;23.60;30.30;;;;;;5012515;28;20207;-51
2021/06/01 02:30:35;;;;;;;1.98;1.30;;;23.60;30.40;;;;;;5012023;28;20223;-46
2021/06/01 02:33:01;;;;;;;1.40;1.30;;;23.60;30.40;;;;;;5011626;28;20242;-45
2021/06/01 02:35:27;;;;;;;1.50;1.30;;;23.60;30.40;;;;;;5027282;28;21940;-49
2021/06/01 02:37:53;;;;;;;1.13;1.13;;;23.60;30.40;;;;;;5023215;28;20218;-54
2021/06/01 02:40:19;;;;;;;1.40;1.23;;;23.60;30.50;;;;;;5022881;28;20230;-52
2021/06/01 02:42:45;;;;;;;1.75;1.13;;;23.60;30.50;;;;;;5023644;28;20349;-46
2021/06/01 02:45:11;;;;;;;2.05;1.38;;;23.60;30.40;;;;;;5027285;28;20213;-45
2021/06/01 02:47:37;;;;;;;1.40;1.30;;;23.60;30.50;;;;;;5011995;28;20767;-45
2021/06/01 02:50:03;;;;;;;1.33;1.23;;;23.60;30.50;;;;;;5011428;28;20261;-46
2021/06/01 02:52:29;;;;;;;1.40;1.30;;;23.60;30.40;;;;;;5021016;28;20284;-45
2021/06/01 02:54:55;;;;;;;1.30;1.20;;;23.60;30.50;;;;;;5029798;28;20207;-52
2021/06/01 02:57:21;;;;;;;1.13;1.10;;;23.60;30.50;;;;;;5013561;28;20207;-51
2021/06/01 02:59:47;;;;;;;1.20;1.10;;;23.60;30.50;;;;;;5009593;28;20229;-51
2021/06/01 03:02:13;;;;;;;1.00;1.00;;;23.60;30.50;;;;;;5020574;28;20237;-46
2021/06/01 03:04:39;;;;;;;1.20;1.10;;;23.60;30.50;;;;;;5021011;28;20199;-45
2021/06/01 03:07:05;;;;;;;1.27;1.13;;;23.60;30.50;;;;;;5015131;28;20205;-52
2021/06/01 03:09:31;;;;;;;1.40;1.30;;;23.60;30.50;;;;;;5025704;28;20205;-46
2021/06/01 03:12:01;;;;;;;1.52;1.20;;;23.60;30.60;;;;;;5026929;28;20585;-51
2021/06/01 03:14:27;;;;;;;1.30;1.20;;;23.60;30.50;;;;;;5027326;28;20248;-46
2021/06/01 03:16:53;;;;;;;1.40;1.30;;;23.60;30.50;;;;;;5029884;28;20246;-51
2021/06/01 03:19:19;;;;;;;1.15;1.15;;;23.60;30.60;;;;;;5026093;28;20206;-46
2021/06/01 03:21:45;;;;;;;1.40;1.20;;;23.60;30.50;;;;;;5031054;23;20231;-42
2021/06/01 03:24:11;;;;;;;2.15;1.20;;;23.60;30.50;;;;;;5024927;28;20238;-41
2021/06/01 03:26:37;;;;;;;1.17;1.10;;;23.60;30.50;;;;;;5030818;28;20202;-47
2021/06/01 03:29:03;;;;;;;1.10;1.10;;;23.60;30.50;;;;;;5030693;28;20199;-46
2021/06/01 03:31:31;;;;;;;1.10;1.10;;;23.60;30.50;;;;;;5031479;28;20296;-41
2021/06/01 03:33:57;;;;;;;1.27;1.20;;;23.60;30.50;;;;;;5029663;28;20237;-44
2021/06/01 03:36:23;;;;;;;1.20;1.10;;;23.60;30.50;;;;;;5028718;28;20207;-40
2021/06/01 03:38:51;;;;;;;1.30;1.20;;;23.60;30.60;;;;;;5030024;28;20199;-47
2021/06/01 03:41:17;;;;;;;1.55;1.10;;;23.60;30.50;;;;;;5038541;28;20308;-44
2021/06/01 03:43:43;;;;;;;1.15;1.05;;;23.60;30.60;;;;;;5038483;28;20686;-46
2021/06/01 03:46:09;;;;;;;1.15;1.05;;;23.60;30.60;;;;;;5047638;28;20357;-46
2021/06/01 03:48:35;;;;;;;1.30;1.20;;;23.60;30.60;;;;;;5038216;28;20614;-46
2021/06/01 03:51:01;;;;;;;1.45;1.10;;;23.60;30.50;;;;;;5040926;28;20222;-44
2021/06/01 03:53:28;;;;;;;1.50;1.40;;;23.60;30.60;;;;;;5032923;28;20202;-42
2021/06/01 03:55:54;;;;;;;1.05;1.05;;;23.60;30.50;;;;;;5033764;28;20197;-43
2021/06/01 03:58:20;;;;;;;1.17;1.10;;;23.60;30.70;;;;;;5039948;28;20683;-44
2021/06/01 04:00:46;;;;;;;1.48;1.38;;;23.60;30.60;;;;;;5031196;28;20218;-45
2021/06/01 04:03:12;;;;;;;1.20;1.10;;;23.60;30.70;;;;;;5029695;28;20670;-43
2021/06/01 04:05:38;;;;;;;1.30;1.20;;;23.60;30.70;;;;;;5030790;28;20207;-45
2021/06/01 04:08:06;;;;;;;1.10;1.10;;;23.60;30.70;;;;;;5029089;28;21022;-46
2021/06/01 04:10:32;;;;;;;1.00;1.00;;;23.60;30.60;;;;;;5029493;28;20288;-44
2021/06/01 04:12:57;;;;;;;1.38;1.20;;;23.60;30.70;;;;;;5027488;28;20215;-43
2021/06/01 04:15:23;;;;;;;1.20;1.15;;;23.60;30.70;;;;;;5030088;28;20343;-42
2021/06/01 04:17:49;;;;;;;1.65;1.30;;;23.60;31.10;;;;;;5029686;28;20597;-41
2021/06/01 04:20:15;;;;;;;1.10;1.10;;;23.60;31.80;;;;;;5027670;28;20281;-44
2021/06/01 04:22:41;;;;;;;1.05;1.00;;;23.60;31.40;;;;;;5029236;28;20226;-45
2021/06/01 04:25:07;;;;;;;1.33;1.23;;;23.60;31.00;;;;;;5028405;28;20206;-44
2021/06/01 04:27:33;;;;;;;1.60;1.17;;;23.60;31.00;;;;;;5030137;28;20260;-47
2021/06/01 04:29:59;;;;;;;1.30;1.20;;;23.60;31.00;;;;;;5029034;28;20635;-47
2021/06/01 04:32:25;;;;;;;1.58;1.17;;;23.60;31.00;;;;;;5028689;28;20206;-45
2021/06/01 04:34:51;;;;;;;1.27;1.17;;;23.60;31.00;;;;;;5029620;28;20199;-42
2021/06/01 04:37:17;;;;;;;1.20;1.10;;;23.60;31.00;;;;;;5027380;28;20278;-45
2021/06/01 04:39:43;;;;;;;1.50;1.20;;;23.60;31.00;;;;;;5029288;28;20202;-43
2021/06/01 04:42:09;;;;;;;1.17;1.10;;;23.60;31.10;;;;;;5029434;28;20219;-45
2021/06/01 04:44:35;;;;;;;1.38;1.25;;;23.60;31.00;;;;;;5033192;28;20566;-43
2021/06/01 04:47:01;;;;;;;1.38;1.27;;;23.60;31.00;;;;;;5032588;28;20234;-45
2021/06/01 04:49:27;;;;;;;1.85;1.10;;;23.60;31.00;;;;;;5032512;28;20198;-41
2021/06/01 04:51:53;;;;;;;1.27;1.17;;;23.60;31.00;;;;;;5032382;28;20287;-46
2021/06/01 04:54:19;;;;;;;1.15;1.10;;;23.60;31.00;;;;;;5035667;28;20206;-43
2021/06/01 04:56:45;;;;;;;1.98;1.10;;;23.60;31.00;;;;;;5032618;28;20241;-42
2021/06/01 04:59:11;;;;;;;1.48;1.25;;;23.60;31.00;;;;;;5032262;28;20587;-43
2021/06/01 05:01:38;;;;;;;1.30;1.20;;;23.60;31.00;;;;;;5030896;28;20218;-41
2021/06/01 05:04:04;;;;;;;1.33;1.23;;;23.60;31.00;;;;;;5030281;28;20261;-43
2021/06/01 05:06:30;;;;;;;1.00;1.00;;;23.60;31.00;;;;;;5031882;28;20202;-44
2021/06/01 05:08:56;;;;;;;1.30;1.20;;;23.60;31.00;;;;;;5032480;28;20681;-41
2021/06/01 05:11:22;;;;;;;1.48;1.10;;;23.60;31.00;;;;;;5032262;28;20210;-42
2021/06/01 05:13:48;;;;;;;1.40;1.17;;;23.60;31.00;;;;;;5031557;28;20572;-43
2021/06/01 05:16:14;;;;;;;1.17;1.17;;;23.60;31.70;;;;;;5032786;28;20202;-43
2021/06/01 05:18:41;;;;;;;1.48;1.20;;;23.60;31.10;;;;;;5031087;28;20819;-44
2021/06/01 05:21:07;;;;;;;1.10;1.10;;;23.60;31.00;;;;;;5032588;28;20778;-40
2021/06/01 05:23:33;;;;;;;1.30;1.20;;;23.60;31.00;;;;;;5031375;28;20227;-44
2021/06/01 05:25:59;;;;;;;1.20;1.10;;;23.60;31.10;;;;;;5031283;28;20260;-43
2021/06/01 05:28:25;;;;;;;1.17;1.08;;;23.60;31.00;;;;;;5031161;28;20219;-43
2021/06/01 05:31:00;;;;;;;1.48;1.38;;;23.60;31.10;;;;;;5032243;28;20232;-42
2021/06/01 05:33:27;;;;;;;1.27;1.17;;;23.60;31.10;;;;;;5032133;28;20209;-43
2021/06/01 05:35:54;;;;;;;1.17;1.08;;;23.60;31.10;;;;;;5031078;28;20281;-41
2021/06/01 05:38:20;;;;;;;1.88;1.20;;;23.60;31.10;;;;;;5031296;28;20221;-39
2021/06/01 05:40:46;;;;;;;1.60;1.48;;;23.60;31.00;;;;;;5031424;28;20223;-42
2021/06/01 05:43:11;;;;;;;1.40;1.15;;;23.60;31.00;;;;;;5031945;28;20775;-45
2021/06/01 05:45:38;;;;;;;1.40;1.30;;;23.60;31.00;;;;;;5030319;28;20293;-43
2021/06/01 05:48:04;;;;;;;1.15;1.15;;;23.60;31.10;;;;;;5031529;28;20210;-45
2021/06/01 05:50:30;;;;;;;1.48;1.20;;;23.60;31.00;;;;;;5030554;28;20305;-42
2021/06/01 05:52:56;;;;;;;1.10;1.10;;;23.60;31.00;;;;;;5032054;28;20600;-43
2021/06/01 05:55:22;;;;;;;1.45;1.30;;;23.60;31.00;;;;;;5029664;28;20198;-44
2021/06/01 05:57:48;;;;;;;1.17;1.10;;;23.60;31.00;;;;;;5031439;28;20218;-46
2021/06/01 06:00:13;;;;;;;1.27;1.17;;;23.60;31.00;;;;;;5031081;28;20686;-41
2021/06/01 06:02:40;;;;;;;1.08;1.08;;;23.60;31.00;;;;;;5031927;28;20230;-44
2021/06/01 06:05:06;;;;;;;1.30;1.20;;;23.60;31.00;;;;;;5031129;28;20225;-45
2021/06/01 06:07:32;;;;;;;1.40;1.30;;;23.60;31.00;;;;;;5031355;28;20202;-42
2021/06/01 06:09:57;;;;;;;1.35;1.30;;;23.60;31.00;;;;;;5030052;28;21812;-40
2021/06/01 06:12:23;;;;;;;1.42;1.20;;;23.60;31.00;;;;;;5035635;28;20199;-42
2021/06/01 06:14:49;;;;;;;1.95;1.10;;;23.60;31.00;;;;;;5041214;28;20281;-42
2021/06/01 06:17:15;;;;;;;1.17;1.08;;;23.60;31.00;;;;;;5030691;28;20210;-39
2021/06/01 06:19:43;;;;;;;1.40;1.30;;;23.60;31.00;;;;;;5029905;28;20559;-42
2021/06/01 06:22:09;;;;;;;1.10;1.10;;;23.60;31.00;;;;;;5041581;28;20218;-39
2021/06/01 06:24:35;;;;;;;1.20;1.10;;;23.60;31.00;;;;;;5044012;28;20226;-40
2021/06/01 06:27:01;;;;;;;1.23;1.20;;;23.60;31.00;;;;;;5032708;28;20205;-40
2021/06/01 06:29:27;;;;;;;1.48;1.17;;;23.60;31.00;;;;;;5030574;28;20401;-39
2021/06/01 06:31:53;;;;;;;1.17;1.10;;;23.60;31.00;;;;;;5031099;28;20294;-40
2021/06/01 06:34:19;;;;;;;1.42;1.23;;;23.60;31.00;;;;;;5032704;28;20214;-39
2021/06/01 06:36:45;;;;;;;1.50;1.40;;;23.60;30.90;;;;;;5035401;28;20282;-42
2021/06/01 06:39:11;;;;;;;1.20;1.10;;;23.60;31.00;;;;;;5025768;28;20229;-45
2021/06/01 06:41:37;;;;;;;1.20;1.10;;;23.60;30.90;;;;;;5029479;28;20694;-40
2021/06/01 06:44:04;;;;;;;1.75;1.65;;;23.60;30.90;;;;;;5045029;28;20279;-40
2021/06/01 06:46:35;;;;;;;1.30;1.20;;;23.60;31.00;;;;;;5043565;28;20281;-46
2021/06/01 06:49:01;;;;;;;1.20;1.10;;;23.60;31.00;;;;;;5029703;28;20198;-47
2021/06/01 06:51:27;;;;;;;1.00;1.00;;;23.60;30.90;;;;;;5045247;28;20564;-41
2021/06/01 06:53:54;;;;;;;1.55;1.10;;;23.60;30.90;;;;;;5028948;28;20210;-40
2021/06/01 06:56:20;;;;;;;1.25;1.15;;;23.60;31.00;;;;;;5024986;28;20206;-44
2021/06/01 06:58:46;;;;;;;1.30;1.20;;;23.70;31.00;;;;;;5030369;28;20205;-41
2021/06/01 07:01:12;;;;;;;1.13;1.10;;;23.70;31.00;;;;;;5029948;28;20737;-40
2021/06/01 07:03:38;;;;;;;1.38;1.27;;;23.70;31.00;;;;;;5032700;28;20226;-44
2021/06/01 07:06:04;;;;;;;1.38;1.27;;;23.70;31.00;;;;;;5029537;28;20225;-45
2021/06/01 07:08:30;;;;;;;2.03;1.40;;;23.70;31.00;;;;;;5025411;28;20199;-46
2021/06/01 07:10:56;;;;;;;1.40;1.10;;;23.70;31.30;;;;;;5023709;28;20305;-45
2021/06/01 07:13:22;;;;;;;2.33;1.40;;;23.80;31.20;;;;;;5028421;28;20202;-43
2021/06/01 07:15:48;;;;;;;1.85;1.20;;;23.80;31.40;;;;;;5026859;28;20226;-45
2021/06/01 07:18:14;;;;;;;1.88;1.40;;;23.80;31.40;;;;;;5028071;28;20806;-48
2021/06/01 07:20:40;;;;;;;2.50;1.27;;;23.80;31.40;;;;;;5020923;28;20726;-39
2021/06/01 07:23:06;;;;;;;4.63;1.75;;;23.80;32.10;;;;;;5022632;28;20226;-46
2021/06/01 07:25:32;;;;;;;2.65;1.20;;;23.80;32.00;;;;;;5028827;28;20241;-43
2021/06/01 07:27:58;;;;;;;1.60;1.40;;;23.80;31.90;;;;;;5023251;28;20214;-40
2021/06/01 07:30:24;;;;;;;2.63;1.40;;;23.80;31.60;;;;;;5024534;28;20227;-52
2021/06/01 07:32:50;;;;;;;1.85;1.67;;;23.90;33.10;;;;;;5021517;28;20649;-52
2021/06/01 07:35:16;;;;;;;1.83;1.30;;;24.00;32.70;;;;;;5029855;28;20202;-51
2021/06/01 07:37:42;;;;;;;3.90;1.40;;;23.90;32.30;;;;;;5030183;28;20199;-55
2021/06/01 07:40:08;;;;;;;1.52;1.42;;;23.90;32.60;;;;;;5027674;28;20222;-52
2021/06/01 07:42:34;;;;;;;2.65;1.77;;;23.90;32.70;;;;;;5021262;28;20309;-52
2021/06/01 07:45:00;;;;;;;1.92;1.65;;;23.80;32.70;;;;;;5030532;28;20214;-55
2021/06/01 07:47:26;;;;;;;8.10;1.98;;;23.80;32.40;;;;;;5034761;28;20224;-49
2021/06/01 07:49:52;;;;;;;4.22;2.40;;;23.90;33.10;;;;;;5036217;28;20272;-51
2021/06/01 07:52:18;;;;;;;4.13;2.70;;;23.80;31.70;;;;;;5029496;28;20202;-49
2021/06/01 07:54:44;;;;;;;2.90;2.40;;;22.80;28.40;;;;;;5029750;28;20202;-48
2021/06/01 07:57:10;;;;;;;2.63;2.30;;;22.50;28.50;;;;;;5031614;28;20213;-45
2021/06/01 07:59:36;;;;;;;2.47;2.28;;;22.30;27.60;;;;;;5049452;28;20236;-49
2021/06/01 08:02:02;;;;;;;2.63;2.42;;;22.70;26.20;;;;;;5030768;28;20209;-48
2021/06/01 08:04:28;;;;;;;2.60;2.20;;;22.20;25.40;;;;;;5028815;28;20226;-50
2021/06/01 08:06:54;;;;;;;3.97;2.80;;;22.30;26.40;;;;;;5029990;28;20214;-50
2021/06/01 08:09:20;;;;;;;2.30;2.08;;;22.60;25.90;;;;;;5024931;28;20296;-49
2021/06/01 08:11:46;;;;;;;4.68;2.40;;;22.80;26.00;;;;;;5021369;28;20274;-47
2021/06/01 08:14:12;;;;;;;3.15;2.20;;;23.10;26.20;;;;;;5022924;28;20654;-47
2021/06/01 08:16:40;;;;;;;2.47;2.28;;;23.20;27.30;;;;;;5026669;28;20229;-52
2021/06/01 08:19:11;;;;;;;4.82;1.92;;;23.30;27.30;;;;;;5026463;28;20265;-50
2021/06/01 08:21:47;;;;;;;2.63;2.10;;;23.40;27.80;;;;;;5019308;28;20214;-50
2021/06/01 08:24:14;;;;;;;4.47;2.42;;;23.50;28.20;;;;;;5024365;28;20724;-49
2021/06/01 08:26:40;;;;;;;2.05;1.85;;;23.50;28.40;;;;;;5022537;28;20294;-46
2021/06/01 08:29:06;;;;;;;3.13;2.10;;;23.60;28.60;;;;;;5030471;28;20215;-49
2021/06/01 08:31:32;;;;;;;2.55;2.10;;;23.60;28.70;;;;;;5032763;28;20261;-48
2021/06/01 08:33:58;;;;;;;2.08;1.90;;;23.60;28.30;;;;;;5026177;28;20274;-50
2021/06/01 08:36:25;;;;;;;2.72;2.33;;;23.60;27.40;;;;;;5027561;28;20199;-45
2021/06/01 08:38:51;;;;;;;3.08;2.40;;;23.50;26.60;;;;;;5018084;28;20197;-45
2021/06/01 08:41:17;;;;;;;2.22;2.03;;;23.60;26.80;;;;;;5023236;28;20198;-44
2021/06/01 08:43:43;;;;;;;1.80;1.65;;;23.60;27.60;;;;;;5036778;28;20261;-49
2021/06/01 08:46:10;;;;;;;3.42;2.10;;;23.60;27.00;;;;;;5032707;28;20206;-52
2021/06/01 08:48:36;;;;;;;2.38;1.88;;;23.60;26.00;;;;;;5032725;28;20199;-50
2021/06/01 08:51:02;;;;;;;3.08;2.03;;;23.50;25.30;;;;;;5032868;28;20685;-45
2021/06/01 08:53:28;;;;;;;2.20;2.00;;;23.50;25.00;;;;;;5032068;28;20293;-44
2021/06/01 08:55:54;;;;;;;2.47;2.15;;;23.50;24.80;;;;;;5032560;28;20209;-47
2021/06/01 08:58:20;;;;;;;2.30;2.20;;;23.50;24.60;;;;;;5047050;28;20651;-42
2021/06/01 09:00:46;;;;;;;6.22;2.40;;;23.40;24.60;;;;;;5040893;28;20244;-43
2021/06/01 09:03:13;;;;;;;2.75;1.98;;;23.40;25.20;;;;;;5052530;28;20698;-45
2021/06/01 09:05:39;;;;;;;2.10;2.00;;;23.40;24.90;;;;;;5035163;28;20210;-43
2021/06/01 09:08:08;;;;;;;2.38;2.10;;;23.40;24.50;;;;;;5031817;28;20488;-47
2021/06/01 09:10:51;;;;;;;3.58;2.28;;;23.40;24.40;;;;;;5033320;28;20642;-44
2021/06/01 09:19:53;;;;;;;5.07;2.53;;;23.40;24.40;;;;;;5039630;28;20573;-48
2021/06/01 09:21:23;;;;;;;2.60;2.40;;;23.40;24.40;;;;;;5002250;28;20218;-42
2021/06/01 09:23:49;;;;;;;2.58;2.38;;;23.40;24.90;;;;;;5049270;28;20232;-44
2021/06/01 09:26:15;;;;;;;2.40;2.20;;;23.40;24.40;;;;;;5035142;28;20210;-47
2021/06/01 09:28:42;;;;;;;2.45;2.25;;;23.40;24.40;;;;;;5041898;28;20791;-45
2021/06/01 09:31:08;;;;;;;3.22;2.20;;;23.40;24.50;;;;;;5035171;28;20191;-44
2021/06/01 09:33:34;;;;;;;2.50;2.30;;;23.40;24.40;;;;;;5035294;28;20515;-49
2021/06/01 09:36:01;;;;;;;2.97;2.28;;;23.40;25.10;;;;;;5032291;28;20210;-42
2021/06/01 09:38:28;;;;;;;2.85;2.38;;;23.40;24.60;;;;;;5020004;28;20239;-47
2021/06/01 09:40:54;;;;;;;3.28;2.00;;;23.40;24.80;;;;;;5016879;28;20286;-47
2021/06/01 09:43:20;;;;;;;3.05;2.20;;;23.40;24.40;;;;;;5012067;28;20296;-44
2021/06/01 09:45:46;;;;;;;2.30;2.10;;;23.40;24.70;;;;;;5029622;28;20197;-46
2021/06/01 09:48:12;;;;;;;2.70;2.13;;;23.40;25.40;;;;;;5039959;28;20206;-45
2021/06/01 09:50:41;;;;;;;2.50;2.10;;;23.50;26.10;;;;;;5027815;28;20280;-49
2021/06/01 09:53:07;;;;;;;2.30;2.10;;;23.50;26.10;;;;;;5025431;28;20215;-49
2021/06/01 09:55:35;;;;;;;2.72;2.40;;;23.50;25.70;;;;;;5033045;28;20280;-49
2021/06/01 09:58:01;;;;;;;4.95;2.45;;;23.50;25.80;;;;;;5047620;28;20195;-48
2021/06/01 10:00:27;;;;;;;3.55;2.22;;;23.50;25.90;;;;;;5031142;28;20268;-45
2021/06/01 10:02:54;;;;;;;2.22;2.00;;;23.50;26.40;;;;;;5031435;28;20271;-49
2021/06/01 10:05:20;;;;;;;2.67;1.98;;;23.50;26.90;;;;;;5031661;28;20202;-44
2021/06/01 10:07:46;;;;;;;2.55;2.35;;;23.50;27.30;;;;;;5032442;28;20233;-49
2021/06/01 10:10:12;;;;;;;2.20;1.98;;;23.50;27.40;;;;;;5031145;28;20222;-48
2021/06/01 10:12:38;;;;;;;3.05;2.30;;;23.50;27.60;;;;;;5031006;28;20238;-48
2021/06/01 10:15:04;;;;;;;2.60;2.10;;;23.50;27.80;;;;;;5031255;28;20256;-46
2021/06/01 10:17:30;;;;;;;3.28;2.00;;;23.50;27.90;;;;;;5042496;28;20220;-44
2021/06/01 10:19:56;;;;;;;3.50;2.28;;;23.50;28.00;;;;;;5036658;28;20226;-50
2021/06/01 10:22:22;;;;;;;2.72;2.50;;;23.50;28.20;;;;;;5030712;28;20213;-48
2021/06/01 10:24:48;;;;;;;1.90;1.80;;;23.50;28.40;;;;;;5029866;28;20651;-48
2021/06/01 10:27:14;;;;;;;2.30;2.10;;;23.50;28.40;;;;;;5037655;28;20291;-48
2021/06/01 10:29:40;;;;;;;2.40;2.20;;;23.50;28.40;;;;;;5040412;28;20572;-51
2021/06/01 10:32:06;;;;;;;2.25;2.10;;;23.50;28.40;;;;;;5029854;28;20260;-50
2021/06/01 10:34:32;;;;;;;4.03;2.30;;;23.50;28.40;;;;;;5029584;28;20206;-46
2021/06/01 10:42:34;;;;;;;3.08;2.05;;;23.60;28.80;;;;;;5017721;28;20341;-47
2021/06/01 10:48:42;;;;;;;2.47;2.10;;;23.60;28.40;;;;;;5010162;28;20686;-47
2021/06/01 10:50:39;;;;;;;4.35;2.20;;;23.60;27.50;;;;;;5028422;28;20256;-46
2021/06/01 10:53:05;;;;;;;2.72;2.13;;;23.60;28.20;;;;;;5027386;28;20202;-51
2021/06/01 10:55:31;;;;;;;2.33;2.08;;;23.60;27.30;;;;;;5018722;28;20203;-48
2021/06/01 10:57:57;;;;;;;2.25;1.98;;;23.60;26.60;;;;;;5022326;28;20303;-43
2021/06/01 11:03:07;;;;;;;3.00;2.10;;;23.50;26.20;;;;;;5023840;28;20236;-50
2021/06/01 11:05:41;;;;;;;4.03;2.10;;;23.50;26.30;;;;;;5026786;28;20206;-48
2021/06/01 11:08:12;;;;;;;2.40;2.20;;;23.50;26.50;;;;;;5009886;28;20785;-52
2021/06/01 11:10:38;;;;;;;3.10;2.45;;;23.50;25.90;;;;;;5025030;28;20199;-44
2021/06/01 11:13:04;;;;;;;2.70;2.50;;;23.50;25.90;;;;;;5018637;28;20217;-50
2021/06/01 11:15:30;;;;;;;3.28;2.17;;;23.50;25.90;;;;;;5025503;28;20206;-51
2021/06/01 11:17:56;;;;;;;2.33;2.13;;;23.50;25.80;;;;;;5011266;28;20277;-50
2021/06/01 11:20:27;;;;;;;3.72;2.38;;;23.50;25.40;;;;;;5016533;28;20203;-50
2021/06/01 11:22:59;;;;;;;2.53;2.33;;;23.50;25.30;;;;;;4975832;28;1233044;-49
2021/06/01 11:33:37;;;;;;;2.22;2.03;;;23.50;25.20;;;;;;5030271;28;20197;-48
2021/06/01 11:36:03;;;;;;;3.20;2.42;;;23.50;25.10;;;;;;5027075;28;20241;-50
2021/06/01 11:38:32;;;;;;;2.17;1.90;;;23.50;25.10;;;;;;5026707;28;20642;-48
2021/06/01 11:43:54;;;;;;;2.65;2.30;;;23.50;24.90;;;;;;5026607;28;20742;-51
2021/06/01 11:46:27;;;;;;;2.47;2.20;;;23.50;25.10;;;;;;5044296;28;20201;-50
2021/06/01 11:51:37;;;;;;;2.28;1.90;;;23.50;25.00;;;;;;5033257;28;20598;-49
2021/06/01 11:54:05;;;;;;;2.72;2.53;;;23.50;24.90;;;;;;5036017;28;20311;-50
2021/06/01 11:56:31;;;;;;;2.42;2.22;;;23.50;25.00;;;;;;5033599;28;20198;-47
2021/06/01 12:13:12;;;;;;;1.90;1.80;;;23.40;24.40;;;;;;5036741;28;20190;-46
2021/06/01 12:18:27;;;;;;;3.08;2.10;;;23.40;24.90;;;;;;5032243;28;20314;-47
2021/06/01 12:20:53;;;;;;;2.17;1.98;;;23.50;25.10;;;;;;5030507;28;20203;-46
2021/06/01 12:23:19;;;;;;;3.83;2.30;;;23.50;25.20;;;;;;5034132;28;20233;-50
2021/06/01 12:25:45;;;;;;;3.15;2.58;;;23.50;25.10;;;;;;5031856;28;20727;-49
2021/06/01 12:30:52;;;;;;;2.40;2.20;;;23.50;25.10;;;;;;5031628;28;20309;-48
2021/06/01 12:30:59;;;;;;;2.50;2.30;;;23.50;25.10;;;;;;5035622;28;20209;-48
2021/06/01 12:33:25;;;;;;;2.33;2.13;;;23.40;24.90;;;;;;5044148;28;20294;-45
2021/06/01 12:36:44;;;;;;;2.30;2.20;;;23.50;25.10;;;;;;5033244;28;20526;-52
2021/06/01 12:41:45;;;;;;;2.45;2.05;;;23.40;24.80;;;;;;5025230;28;20678;-52
2021/06/01 12:44:11;;;;;;;3.17;2.47;;;23.40;24.80;;;;;;5033220;28;20324;-51
2021/06/01 12:46:42;;;;;;;2.53;2.33;;;23.40;24.90;;;;;;5036244;28;20209;-49
2021/06/01 13:06:18;;;;;;;2.25;2.05;;;23.40;24.80;;;;;;5032379;28;20210;-45
2021/06/01 13:08:54;;;;;;;2.47;2.28;;;23.40;24.70;;;;;;5032167;28;20224;-51
2021/06/01 13:19:33;;;;;;;2.10;1.90;;;23.40;24.40;;;;;;5017466;28;20193;-49
2021/06/01 13:22:08;;;;;;;2.10;1.90;;;23.40;24.40;;;;;;5034988;28;20686;-47
2021/06/01 13:30:22;;;;;;;4.10;2.30;;;23.40;24.40;;;;;;5028354;28;20260;-45
2021/06/01 13:36:22;;;;;;;2.58;2.25;;;23.40;24.40;;;;;;5028149;28;20285;-51
2021/06/01 13:38:23;;;;;;;1.90;1.80;;;23.40;24.40;;;;;;5051406;28;20751;-49
2021/06/01 13:45:56;;;;;;;2.08;1.98;;;23.40;24.40;;;;;;5046899;28;20206;-49
2021/06/01 13:46:25;;;;;;;2.40;2.20;;;23.40;24.40;;;;;;5025966;28;20244;-48
2021/06/01 13:49:01;;;;;;;1.85;1.75;;;23.40;24.50;;;;;;5028347;28;20597;-46
2021/06/01 13:51:53;;;;;;;4.53;1.80;;;23.40;24.10;;;;;;5026963;28;20195;-50
2021/06/01 13:57:08;;;;;;;1.73;1.63;;;23.40;23.80;;;;;;5022760;28;20220;-50
2021/06/01 13:59:41;;;;;;;2.33;1.92;;;23.40;23.70;;;;;;5020609;28;20216;-51
2021/06/01 14:02:26;;;;;;;3.17;2.00;;;23.40;23.70;;;;;;5032228;28;20286;-46
2021/06/01 14:21:51;;;;;;;2.70;1.73;;;23.40;24.40;;;;;;5019951;28;20709;-47
2021/06/01 14:29:57;;;;;;;4.15;1.83;;;23.50;25.00;;;;;;5031244;28;20205;-48
2021/06/01 14:38:06;;;;;;;2.90;1.88;;;23.50;25.40;;;;;;5050699;28;20255;-43
2021/06/01 15:28:37;;;;;;;1.77;1.67;;;23.60;27.40;;;;;;5031168;28;20237;-42
2021/06/01 15:47:40;;;;;;;1.60;1.50;;;23.60;27.70;;;;;;5034930;28;20232;-45
2021/06/01 15:49:34;;;;;;;2.85;1.85;;;23.70;28.40;;;;;;5029830;28;20654;-46
2021/06/01 15:52:35;;;;;;;2.28;1.70;;;23.60;28.40;;;;;;5029690;28;20205;-46
2021/06/01 16:11:50;;;;;;;1.65;1.55;;;23.80;28.60;;;;;;5010272;28;20285;-44